sensor_id;sensor_type;location;lat;lon;timestamp;pressure;altitude;pressure_sealevel;temperature;humidity
7480;BME280;3781;42.272;22.658;2024-03-29T00:00:44;94306.88;;;9.76;78.95
7480;BME280;3781;42.272;22.658;2024-03-29T00:03:10;94080.16;;;8.27;81.76
7480;BME280;3781;42.272;22.658;2024-03-29T00:05:36;94204.25;;;9.06;82.89
7480;BME280;3781;42.272;22.658;2024-03-29T00:08:03;94174.44;;;8.53;85.52
7480;BME280;3781;42.272;22.658;2024-03-29T00:10:29;94106.22;;;8.14;86.69
7480;BME280;3781;42.272;22.658;2024-03-29T00:12:55;94194.63;;;8.59;86.59
7480;BME280;3781;42.272;22.658;2024-03-29T00:15:23;94295.38;;;8.81;93.42
7480;BME280;3781;42.272;22.658;2024-03-29T00:17:49;94059.00;;;7.12;96.91
7480;BME280;3781;42.272;22.658;2024-03-29T00:20:15;94073.22;;;7.27;96.87
7480;BME280;3781;42.272;22.658;2024-03-29T00:22:42;94208.56;;;8.28;95.37
7480;BME280;3781;42.272;22.658;2024-03-29T00:25:09;94225.69;;;8.59;90.74
7480;BME280;3781;42.272;22.658;2024-03-29T00:27:35;94291.25;;;9.19;87.81
7480;BME280;3781;42.272;22.658;2024-03-29T00:30:00;94278.66;;;8.95;89.52
7480;BME280;3781;42.272;22.658;2024-03-29T00:32:28;94140.69;;;8.15;89.32
7480;BME280;3781;42.272;22.658;2024-03-29T00:34:54;94238.59;;;8.89;87.09
7480;BME280;3781;42.272;22.658;2024-03-29T00:37:20;94223.88;;;8.99;84.24
7480;BME280;3781;42.272;22.658;2024-03-29T00:39:46;94265.63;;;9.16;84.80
7480;BME280;3781;42.272;22.658;2024-03-29T00:42:12;94313.41;;;9.51;83.57
7480;BME280;3781;42.272;22.658;2024-03-29T00:44:38;94187.53;;;8.52;84.44
7480;BME280;3781;42.272;22.658;2024-03-29T00:47:04;94327.88;;;8.95;90.04
7480;BME280;3781;42.272;22.658;2024-03-29T00:49:31;94142.63;;;7.41;95.88
7480;BME280;3781;42.272;22.658;2024-03-29T00:51:57;94244.72;;;7.98;97.66
7480;BME280;3781;42.272;22.658;2024-03-29T00:54:23;94274.16;;;8.06;100.00
7480;BME280;3781;42.272;22.658;2024-03-29T00:56:49;94315.56;;;8.27;100.00
7480;BME280;3781;42.272;22.658;2024-03-29T00:59:14;94182.00;;;7.34;100.00
7480;BME280;3781;42.272;22.658;2024-03-29T01:01:41;94251.53;;;7.57;100.00
7480;BME280;3781;42.272;22.658;2024-03-29T01:04:07;94290.31;;;7.78;100.00
7480;BME280;3781;42.272;22.658;2024-03-29T01:06:34;94158.50;;;7.16;100.00
7480;BME280;3781;42.272;22.658;2024-03-29T01:09:00;94192.66;;;7.40;100.00
7480;BME280;3781;42.272;22.658;2024-03-29T01:11:26;94200.13;;;7.23;100.00
7480;BME280;3781;42.272;22.658;2024-03-29T01:13:52;94207.34;;;7.08;100.00
7480;BME280;3781;42.272;22.658;2024-03-29T01:16:18;94270.34;;;7.48;100.00
7480;BME280;3781;42.272;22.658;2024-03-29T01:18:44;94245.06;;;7.31;100.00
7480;BME280;3781;42.272;22.658;2024-03-29T01:21:10;94299.63;;;7.70;100.00
7480;BME280;3781;42.272;22.658;2024-03-29T01:23:37;94327.31;;;7.79;100.00
7480;BME280;3781;42.272;22.658;2024-03-29T01:26:04;94204.41;;;7.13;100.00
7480;BME280;3781;42.272;22.658;2024-03-29T01:28:30;94241.22;;;7.26;100.00
7480;BME280;3781;42.272;22.658;2024-03-29T01:30:56;94329.16;;;8.08;100.00
7480;BME280;3781;42.272;22.658;2024-03-29T01:33:21;94213.09;;;7.43;100.00
7480;BME280;3781;42.272;22.658;2024-03-29T01:35:47;94138.28;;;6.69;100.00
7480;BME280;3781;42.272;22.658;2024-03-29T01:38:14;94164.31;;;6.66;100.00
7480;BME280;3781;42.272;22.658;2024-03-29T01:40:42;94206.94;;;6.92;100.00
7480;BME280;3781;42.272;22.658;2024-03-29T01:43:08;94349.53;;;8.02;100.00
7480;BME280;3781;42.272;22.658;2024-03-29T01:45:36;94240.03;;;7.50;100.00
7480;BME280;3781;42.272;22.658;2024-03-29T01:48:05;94170.59;;;7.36;100.00
7480;BME280;3781;42.272;22.658;2024-03-29T01:50:32;94245.97;;;8.03;100.00
7480;BME280;3781;42.272;22.658;2024-03-29T01:52:58;94336.47;;;8.65;99.42
7480;BME280;3781;42.272;22.658;2024-03-29T01:55:25;94237.38;;;8.03;97.39
7480;BME280;3781;42.272;22.658;2024-03-29T01:57:55;94216.97;;;8.00;96.50
7480;BME280;3781;42.272;22.658;2024-03-29T02:00:23;94328.44;;;8.68;97.06
7480;BME280;3781;42.272;22.658;2024-03-29T02:02:50;94314.47;;;8.50;97.70
7480;BME280;3781;42.272;22.658;2024-03-29T02:05:17;94363.91;;;8.77;96.76
7480;BME280;3781;42.272;22.658;2024-03-29T02:07:45;94323.56;;;8.75;95.20
7480;BME280;3781;42.272;22.658;2024-03-29T02:10:14;94360.56;;;8.66;97.87
7480;BME280;3781;42.272;22.658;2024-03-29T02:12:41;94281.16;;;8.36;95.07
7480;BME280;3781;42.272;22.658;2024-03-29T02:15:14;94123.41;;;6.93;100.00
7480;BME280;3781;42.272;22.658;2024-03-29T02:17:41;94349.41;;;8.03;100.00
7480;BME280;3781;42.272;22.658;2024-03-29T02:20:10;94253.50;;;7.33;100.00
7480;BME280;3781;42.272;22.658;2024-03-29T02:22:41;94280.44;;;7.51;100.00
7480;BME280;3781;42.272;22.658;2024-03-29T02:25:13;94310.66;;;7.72;100.00
7480;BME280;3781;42.272;22.658;2024-03-29T02:27:41;94264.66;;;7.02;100.00
7480;BME280;3781;42.272;22.658;2024-03-29T02:30:13;94319.97;;;7.20;100.00
7480;BME280;3781;42.272;22.658;2024-03-29T02:32:40;94122.47;;;6.08;100.00
7480;BME280;3781;42.272;22.658;2024-03-29T02:35:07;94254.72;;;6.87;100.00
7480;BME280;3781;42.272;22.658;2024-03-29T02:37:35;94251.44;;;6.84;100.00
7480;BME280;3781;42.272;22.658;2024-03-29T02:40:02;94192.97;;;6.52;100.00
7480;BME280;3781;42.272;22.658;2024-03-29T02:42:30;94212.63;;;6.64;100.00
7480;BME280;3781;42.272;22.658;2024-03-29T02:44:57;94226.72;;;6.38;100.00
7480;BME280;3781;42.272;22.658;2024-03-29T02:47:24;94362.50;;;7.05;100.00
7480;BME280;3781;42.272;22.658;2024-03-29T02:49:51;94350.22;;;6.75;100.00
7480;BME280;3781;42.272;22.658;2024-03-29T02:52:17;94344.13;;;6.54;100.00
7480;BME280;3781;42.272;22.658;2024-03-29T02:54:44;94295.91;;;6.33;100.00
7480;BME280;3781;42.272;22.658;2024-03-29T02:57:10;94348.47;;;6.65;100.00
7480;BME280;3781;42.272;22.658;2024-03-29T02:59:40;94349.84;;;6.47;100.00
7480;BME280;3781;42.272;22.658;2024-03-29T03:02:06;94329.44;;;6.22;100.00
7480;BME280;3781;42.272;22.658;2024-03-29T03:04:33;94354.78;;;6.50;100.00
7480;BME280;3781;42.272;22.658;2024-03-29T03:06:59;94367.22;;;6.67;100.00
7480;BME280;3781;42.272;22.658;2024-03-29T03:09:46;94469.91;;;7.19;100.00
7480;BME280;3781;42.272;22.658;2024-03-29T03:12:31;94378.47;;;6.66;100.00
7480;BME280;3781;42.272;22.658;2024-03-29T03:14:59;94485.88;;;7.24;100.00
7480;BME280;3781;42.272;22.658;2024-03-29T03:17:26;94493.00;;;6.98;100.00
7480;BME280;3781;42.272;22.658;2024-03-29T03:19:53;94508.50;;;7.09;100.00
7480;BME280;3781;42.272;22.658;2024-03-29T03:22:19;94446.63;;;6.85;100.00
7480;BME280;3781;42.272;22.658;2024-03-29T03:24:46;94366.00;;;6.38;100.00
7480;BME280;3781;42.272;22.658;2024-03-29T03:27:11;94388.91;;;6.64;100.00
7480;BME280;3781;42.272;22.658;2024-03-29T03:29:39;94497.00;;;7.46;100.00
7480;BME280;3781;42.272;22.658;2024-03-29T03:32:06;94489.88;;;7.50;100.00
7480;BME280;3781;42.272;22.658;2024-03-29T03:34:33;94429.50;;;7.18;100.00
7480;BME280;3781;42.272;22.658;2024-03-29T03:36:59;94390.41;;;7.22;100.00
7480;BME280;3781;42.272;22.658;2024-03-29T03:39:26;94467.34;;;7.95;100.00
7480;BME280;3781;42.272;22.658;2024-03-29T03:41:52;94493.13;;;8.17;100.00
7480;BME280;3781;42.272;22.658;2024-03-29T03:44:19;94399.75;;;7.56;100.00
7480;BME280;3781;42.272;22.658;2024-03-29T03:46:47;94423.00;;;7.68;100.00
7480;BME280;3781;42.272;22.658;2024-03-29T03:49:15;94502.41;;;8.19;100.00
7480;BME280;3781;42.272;22.658;2024-03-29T03:51:41;94423.94;;;7.67;100.00
7480;BME280;3781;42.272;22.658;2024-03-29T03:54:07;94457.16;;;8.14;100.00
7480;BME280;3781;42.272;22.658;2024-03-29T03:56:33;94376.50;;;7.88;100.00
7480;BME280;3781;42.272;22.658;2024-03-29T03:59:00;94501.78;;;8.38;100.00
7480;BME280;3781;42.272;22.658;2024-03-29T04:01:26;94410.50;;;7.73;100.00
7480;BME280;3781;42.272;22.658;2024-03-29T04:03:53;94477.50;;;7.76;100.00
7480;BME280;3781;42.272;22.658;2024-03-29T04:06:20;94380.84;;;6.91;100.00
7480;BME280;3781;42.272;22.658;2024-03-29T04:08:46;94512.28;;;7.49;100.00
7480;BME280;3781;42.272;22.658;2024-03-29T04:11:12;94364.53;;;6.12;100.00
7480;BME280;3781;42.272;22.658;2024-03-29T04:13:41;94454.69;;;6.48;100.00
7480;BME280;3781;42.272;22.658;2024-03-29T04:16:07;94553.28;;;6.86;100.00
7480;BME280;3781;42.272;22.658;2024-03-29T04:18:34;94481.81;;;6.30;100.00
7480;BME280;3781;42.272;22.658;2024-03-29T04:21:01;94464.50;;;6.08;100.00
7480;BME280;3781;42.272;22.658;2024-03-29T04:23:30;94431.94;;;5.47;100.00
7480;BME280;3781;42.272;22.658;2024-03-29T04:25:56;94382.09;;;5.12;100.00
7480;BME280;3781;42.272;22.658;2024-03-29T04:28:24;94364.66;;;4.92;100.00
7480;BME280;3781;42.272;22.658;2024-03-29T04:30:53;94562.53;;;6.19;100.00
7480;BME280;3781;42.272;22.658;2024-03-29T04:33:20;94431.66;;;5.39;100.00
7480;BME280;3781;42.272;22.658;2024-03-29T04:35:54;94517.88;;;5.82;100.00
7480;BME280;3781;42.272;22.658;2024-03-29T04:38:21;94520.97;;;5.87;100.00
7480;BME280;3781;42.272;22.658;2024-03-29T04:40:51;94519.09;;;5.89;100.00
7480;BME280;3781;42.272;22.658;2024-03-29T04:43:18;94370.97;;;5.24;100.00
7480;BME280;3781;42.272;22.658;2024-03-29T04:45:45;94596.00;;;6.90;100.00
7480;BME280;3781;42.272;22.658;2024-03-29T04:48:12;94570.94;;;7.03;100.00
7480;BME280;3781;42.272;22.658;2024-03-29T04:50:39;94408.41;;;6.23;100.00
7480;BME280;3781;42.272;22.658;2024-03-29T04:53:07;94470.91;;;6.83;100.00
7480;BME280;3781;42.272;22.658;2024-03-29T04:55:34;94469.53;;;7.01;100.00
7480;BME280;3781;42.272;22.658;2024-03-29T04:58:02;94576.91;;;7.60;100.00
7480;BME280;3781;42.272;22.658;2024-03-29T05:00:29;94577.81;;;7.48;100.00
7480;BME280;3781;42.272;22.658;2024-03-29T05:02:56;94580.66;;;7.56;100.00
7480;BME280;3781;42.272;22.658;2024-03-29T05:05:23;94568.19;;;7.84;100.00
7480;BME280;3781;42.272;22.658;2024-03-29T05:07:50;94543.28;;;7.94;100.00
7480;BME280;3781;42.272;22.658;2024-03-29T05:10:17;94591.41;;;8.50;100.00
7480;BME280;3781;42.272;22.658;2024-03-29T05:12:44;94601.16;;;8.89;100.00
7480;BME280;3781;42.272;22.658;2024-03-29T05:15:14;94599.34;;;9.22;100.00
7480;BME280;3781;42.272;22.658;2024-03-29T05:17:40;94608.09;;;9.51;100.00
7480;BME280;3781;42.272;22.658;2024-03-29T05:20:08;94611.59;;;9.91;100.00
7480;BME280;3781;42.272;22.658;2024-03-29T05:22:35;94598.34;;;9.94;100.00
7480;BME280;3781;42.272;22.658;2024-03-29T05:25:02;94597.16;;;9.98;100.00
7480;BME280;3781;42.272;22.658;2024-03-29T05:27:29;94622.28;;;10.37;95.17
7480;BME280;3781;42.272;22.658;2024-03-29T05:29:56;94612.13;;;10.74;92.22
7480;BME280;3781;42.272;22.658;2024-03-29T05:32:24;94600.09;;;10.92;89.41
7480;BME280;3781;42.272;22.658;2024-03-29T05:34:51;94647.69;;;11.31;86.61
7480;BME280;3781;42.272;22.658;2024-03-29T05:37:18;94632.09;;;11.50;84.86
7480;BME280;3781;42.272;22.658;2024-03-29T05:39:44;94645.50;;;11.55;82.30
7480;BME280;3781;42.272;22.658;2024-03-29T05:42:12;94649.91;;;11.55;82.33
7480;BME280;3781;42.272;22.658;2024-03-29T05:44:40;94649.84;;;11.83;82.34
7480;BME280;3781;42.272;22.658;2024-03-29T05:47:07;94657.34;;;12.05;79.39
7480;BME280;3781;42.272;22.658;2024-03-29T05:49:40;94645.31;;;12.32;76.30
7480;BME280;3781;42.272;22.658;2024-03-29T05:52:07;94668.69;;;12.78;73.70
7480;BME280;3781;42.272;22.658;2024-03-29T05:54:33;94670.22;;;12.98;70.87
7480;BME280;3781;42.272;22.658;2024-03-29T05:57:00;94656.31;;;13.25;69.84
7480;BME280;3781;42.272;22.658;2024-03-29T05:59:28;94658.94;;;13.42;69.07
7480;BME280;3781;42.272;22.658;2024-03-29T06:01:55;94665.19;;;13.49;69.05
7480;BME280;3781;42.272;22.658;2024-03-29T06:04:22;94673.22;;;13.74;65.22
7480;BME280;3781;42.272;22.658;2024-03-29T06:06:56;94670.25;;;13.69;66.22
7480;BME280;3781;42.272;22.658;2024-03-29T06:09:23;94680.66;;;14.29;63.89
7480;BME280;3781;42.272;22.658;2024-03-29T06:11:51;94656.13;;;14.56;61.81
7480;BME280;3781;42.272;22.658;2024-03-29T06:14:18;94650.00;;;14.81;61.00
7480;BME280;3781;42.272;22.658;2024-03-29T06:17:03;94654.31;;;14.98;60.02
7480;BME280;3781;42.272;22.658;2024-03-29T06:19:47;94670.69;;;15.00;59.08
7480;BME280;3781;42.272;22.658;2024-03-29T06:22:17;94644.16;;;14.46;60.59
7480;BME280;3781;42.272;22.658;2024-03-29T06:24:44;94688.03;;;14.34;61.15
7480;BME280;3781;42.272;22.658;2024-03-29T06:27:12;94675.41;;;14.04;61.10
7480;BME280;3781;42.272;22.658;2024-03-29T06:29:41;94679.78;;;13.78;62.46
7480;BME280;3781;42.272;22.658;2024-03-29T06:32:08;94681.78;;;13.66;62.42
7480;BME280;3781;42.272;22.658;2024-03-29T06:34:35;94665.41;;;13.56;63.32
7480;BME280;3781;42.272;22.658;2024-03-29T06:37:04;94679.19;;;13.48;64.77
7480;BME280;3781;42.272;22.658;2024-03-29T06:39:32;94680.56;;;13.52;65.07
7480;BME280;3781;42.272;22.658;2024-03-29T06:42:00;94569.94;;;12.75;64.88
7480;BME280;3781;42.272;22.658;2024-03-29T06:44:27;94623.41;;;13.24;66.99
7480;BME280;3781;42.272;22.658;2024-03-29T06:46:56;94640.16;;;13.39;65.45
7480;BME280;3781;42.272;22.658;2024-03-29T06:49:25;94526.75;;;12.90;63.66
7480;BME280;3781;42.272;22.658;2024-03-29T06:51:52;94569.88;;;13.37;60.37
7480;BME280;3781;42.272;22.658;2024-03-29T06:54:21;94587.72;;;13.68;62.27
7480;BME280;3781;42.272;22.658;2024-03-29T06:56:53;94587.03;;;13.91;59.90
7480;BME280;3781;42.272;22.658;2024-03-29T06:59:20;94715.47;;;15.05;59.54
7480;BME280;3781;42.272;22.658;2024-03-29T07:01:47;94532.00;;;14.18;59.00
7480;BME280;3781;42.272;22.658;2024-03-29T07:04:23;94616.41;;;15.02;57.68
7480;BME280;3781;42.272;22.658;2024-03-29T07:06:50;94581.75;;;15.00;56.57
7480;BME280;3781;42.272;22.658;2024-03-29T07:09:20;94577.84;;;15.04;55.81
7480;BME280;3781;42.272;22.658;2024-03-29T07:11:50;94655.44;;;15.46;56.95
7480;BME280;3781;42.272;22.658;2024-03-29T07:14:21;94646.91;;;15.60;56.76
7480;BME280;3781;42.272;22.658;2024-03-29T07:16:50;94556.91;;;15.21;56.77
7480;BME280;3781;42.272;22.658;2024-03-29T07:19:17;94571.63;;;15.38;56.83
7480;BME280;3781;42.272;22.658;2024-03-29T07:21:45;94702.72;;;16.33;54.91
7480;BME280;3781;42.272;22.658;2024-03-29T07:24:12;94699.88;;;16.58;55.70
7480;BME280;3781;42.272;22.658;2024-03-29T07:26:39;94692.50;;;16.62;57.61
7480;BME280;3781;42.272;22.658;2024-03-29T07:29:07;94570.81;;;15.77;55.50
7480;BME280;3781;42.272;22.658;2024-03-29T07:31:35;94619.03;;;16.15;55.36
7480;BME280;3781;42.272;22.658;2024-03-29T07:34:02;94587.59;;;16.07;57.51
7480;BME280;3781;42.272;22.658;2024-03-29T07:36:29;94620.31;;;16.27;56.14
7480;BME280;3781;42.272;22.658;2024-03-29T07:39:01;94514.25;;;15.52;55.21
7480;BME280;3781;42.272;22.658;2024-03-29T07:41:29;94566.03;;;15.97;55.69
7480;BME280;3781;42.272;22.658;2024-03-29T07:44:01;94612.72;;;16.40;53.54
7480;BME280;3781;42.272;22.658;2024-03-29T07:46:31;94692.25;;;17.18;54.35
7480;BME280;3781;42.272;22.658;2024-03-29T07:49:03;94655.13;;;17.07;54.19
7480;BME280;3781;42.272;22.658;2024-03-29T07:51:32;94694.00;;;17.34;52.88
7480;BME280;3781;42.272;22.658;2024-03-29T07:53:58;94682.56;;;17.50;53.76
7480;BME280;3781;42.272;22.658;2024-03-29T07:56:25;94596.69;;;17.13;51.56
7480;BME280;3781;42.272;22.658;2024-03-29T07:58:54;94572.53;;;17.17;50.42
7480;BME280;3781;42.272;22.658;2024-03-29T08:01:24;94612.03;;;17.69;51.32
7480;BME280;3781;42.272;22.658;2024-03-29T08:03:53;94637.13;;;18.61;49.63
7480;BME280;3781;42.272;22.658;2024-03-29T08:06:21;94590.31;;;19.42;47.35
7480;BME280;3781;42.272;22.658;2024-03-29T08:08:51;94633.81;;;21.39;43.34
7480;BME280;3781;42.272;22.658;2024-03-29T08:11:18;94546.03;;;22.15;40.11
7480;BME280;3781;42.272;22.658;2024-03-29T08:13:45;94678.88;;;23.53;38.69
7480;BME280;3781;42.272;22.658;2024-03-29T08:16:12;94630.00;;;24.12;36.92
7480;BME280;3781;42.272;22.658;2024-03-29T08:18:38;94711.13;;;25.24;35.32
7480;BME280;3781;42.272;22.658;2024-03-29T08:21:05;94685.44;;;25.84;33.88
7480;BME280;3781;42.272;22.658;2024-03-29T08:23:39;94634.31;;;26.12;33.60
7480;BME280;3781;42.272;22.658;2024-03-29T08:26:06;94679.75;;;26.40;32.24
7480;BME280;3781;42.272;22.658;2024-03-29T08:28:33;94619.28;;;26.75;31.66
7480;BME280;3781;42.272;22.658;2024-03-29T08:31:02;94632.75;;;27.43;30.34
7480;BME280;3781;42.272;22.658;2024-03-29T08:33:29;94716.16;;;27.62;30.65
7480;BME280;3781;42.272;22.658;2024-03-29T08:35:57;94647.56;;;27.00;30.38
7480;BME280;3781;42.272;22.658;2024-03-29T08:38:24;94658.97;;;27.46;29.87
7480;BME280;3781;42.272;22.658;2024-03-29T08:40:52;94674.91;;;28.09;29.46
7480;BME280;3781;42.272;22.658;2024-03-29T08:43:19;94616.78;;;28.33;28.10
7480;BME280;3781;42.272;22.658;2024-03-29T08:45:46;94675.22;;;28.58;28.49
7480;BME280;3781;42.272;22.658;2024-03-29T08:48:14;94723.09;;;28.92;27.82
7480;BME280;3781;42.272;22.658;2024-03-29T08:50:40;94702.16;;;28.11;28.54
7480;BME280;3781;42.272;22.658;2024-03-29T08:53:07;94680.91;;;28.50;28.66
7480;BME280;3781;42.272;22.658;2024-03-29T08:55:35;94695.09;;;29.33;28.20
7480;BME280;3781;42.272;22.658;2024-03-29T08:58:06;94684.47;;;29.82;27.91
7480;BME280;3781;42.272;22.658;2024-03-29T09:00:33;94704.72;;;30.21;27.44
7480;BME280;3781;42.272;22.658;2024-03-29T09:03:00;94706.50;;;30.64;25.92
7480;BME280;3781;42.272;22.658;2024-03-29T09:05:27;94690.47;;;30.15;26.50
7480;BME280;3781;42.272;22.658;2024-03-29T09:07:54;94687.47;;;29.85;27.35
7480;BME280;3781;42.272;22.658;2024-03-29T09:10:22;94687.19;;;29.87;26.39
7480;BME280;3781;42.272;22.658;2024-03-29T09:12:52;94653.47;;;29.86;26.93
7480;BME280;3781;42.272;22.658;2024-03-29T09:15:20;94668.09;;;30.58;25.77
7480;BME280;3781;42.272;22.658;2024-03-29T09:17:47;94650.81;;;30.44;25.90
7480;BME280;3781;42.272;22.658;2024-03-29T09:20:14;94670.78;;;30.05;26.00
7480;BME280;3781;42.272;22.658;2024-03-29T09:22:49;94643.94;;;30.00;25.27
7480;BME280;3781;42.272;22.658;2024-03-29T09:25:15;94646.06;;;29.98;25.50
7480;BME280;3781;42.272;22.658;2024-03-29T09:27:45;94620.78;;;30.42;25.27
7480;BME280;3781;42.272;22.658;2024-03-29T09:30:14;94618.28;;;30.67;25.79
7480;BME280;3781;42.272;22.658;2024-03-29T09:32:42;94646.25;;;31.13;24.27
7480;BME280;3781;42.272;22.658;2024-03-29T09:35:12;94640.34;;;31.11;23.80
7480;BME280;3781;42.272;22.658;2024-03-29T09:37:38;94648.88;;;31.50;23.95
7480;BME280;3781;42.272;22.658;2024-03-29T09:40:10;94634.81;;;30.49;24.46
7480;BME280;3781;42.272;22.658;2024-03-29T09:42:39;94628.78;;;31.10;24.78
7480;BME280;3781;42.272;22.658;2024-03-29T09:45:16;94630.59;;;31.42;24.19
7480;BME280;3781;42.272;22.658;2024-03-29T09:47:50;94621.59;;;31.73;23.51
7480;BME280;3781;42.272;22.658;2024-03-29T09:50:18;94626.44;;;31.86;22.97
7480;BME280;3781;42.272;22.658;2024-03-29T09:52:44;94619.38;;;31.65;23.57
7480;BME280;3781;42.272;22.658;2024-03-29T09:55:11;94613.06;;;31.29;24.08
7480;BME280;3781;42.272;22.658;2024-03-29T09:57:41;94612.03;;;31.40;23.85
7480;BME280;3781;42.272;22.658;2024-03-29T10:00:09;94600.03;;;31.01;23.48
7480;BME280;3781;42.272;22.658;2024-03-29T10:02:36;94603.91;;;31.30;22.92
7480;BME280;3781;42.272;22.658;2024-03-29T10:05:07;94605.84;;;31.40;23.17
7480;BME280;3781;42.272;22.658;2024-03-29T10:07:35;94600.91;;;31.11;23.22
7480;BME280;3781;42.272;22.658;2024-03-29T10:10:03;94593.75;;;30.85;22.79
7480;BME280;3781;42.272;22.658;2024-03-29T10:12:30;94597.75;;;31.24;22.21
7480;BME280;3781;42.272;22.658;2024-03-29T10:14:57;94597.63;;;31.61;22.09
7480;BME280;3781;42.272;22.658;2024-03-29T10:17:31;94580.53;;;31.97;22.97
7480;BME280;3781;42.272;22.658;2024-03-29T10:20:00;94584.59;;;32.10;22.64
7480;BME280;3781;42.272;22.658;2024-03-29T10:22:30;94589.91;;;31.90;22.19
7480;BME280;3781;42.272;22.658;2024-03-29T10:24:57;94577.59;;;32.09;22.22
7480;BME280;3781;42.272;22.658;2024-03-29T10:27:24;94579.50;;;32.24;21.82
7480;BME280;3781;42.272;22.658;2024-03-29T10:29:52;94574.94;;;32.54;22.19
7480;BME280;3781;42.272;22.658;2024-03-29T10:32:19;94573.34;;;32.53;21.25
7480;BME280;3781;42.272;22.658;2024-03-29T10:34:48;94574.56;;;31.80;21.43
7480;BME280;3781;42.272;22.658;2024-03-29T10:37:15;94574.78;;;31.49;23.10
7480;BME280;3781;42.272;22.658;2024-03-29T10:39:45;94503.50;;;30.59;22.25
7480;BME280;3781;42.272;22.658;2024-03-29T10:42:12;94584.88;;;31.37;21.61
7480;BME280;3781;42.272;22.658;2024-03-29T10:44:40;94584.47;;;31.55;22.20
7480;BME280;3781;42.272;22.658;2024-03-29T10:47:09;94564.88;;;31.64;21.77
7480;BME280;3781;42.272;22.658;2024-03-29T10:49:40;94564.66;;;31.81;22.85
7480;BME280;3781;42.272;22.658;2024-03-29T10:52:08;94563.38;;;32.04;22.78
7480;BME280;3781;42.272;22.658;2024-03-29T10:54:40;94569.81;;;31.20;22.70
7480;BME280;3781;42.272;22.658;2024-03-29T10:57:16;94566.84;;;31.22;22.44
7480;BME280;3781;42.272;22.658;2024-03-29T10:59:50;94556.63;;;31.19;23.23
7480;BME280;3781;42.272;22.658;2024-03-29T11:02:29;94559.22;;;31.51;22.14
7480;BME280;3781;42.272;22.658;2024-03-29T11:04:59;94550.19;;;31.15;21.94
7480;BME280;3781;42.272;22.658;2024-03-29T11:07:34;94550.13;;;30.95;23.17
7480;BME280;3781;42.272;22.658;2024-03-29T11:10:05;94562.22;;;31.02;22.48
7480;BME280;3781;42.272;22.658;2024-03-29T11:12:41;94555.88;;;31.28;22.35
7480;BME280;3781;42.272;22.658;2024-03-29T11:15:16;94552.41;;;30.39;23.22
7480;BME280;3781;42.272;22.658;2024-03-29T11:17:46;94555.75;;;29.93;23.15
7480;BME280;3781;42.272;22.658;2024-03-29T11:20:14;94555.09;;;29.54;23.53
7480;BME280;3781;42.272;22.658;2024-03-29T11:22:43;94521.66;;;29.30;24.16
7480;BME280;3781;42.272;22.658;2024-03-29T11:25:12;94462.91;;;28.54;25.46
7480;BME280;3781;42.272;22.658;2024-03-29T11:27:41;94482.13;;;27.79;27.74
7480;BME280;3781;42.272;22.658;2024-03-29T11:30:08;94507.34;;;27.72;27.36
7480;BME280;3781;42.272;22.658;2024-03-29T11:32:36;94515.69;;;27.19;27.05
7480;BME280;3781;42.272;22.658;2024-03-29T11:35:05;94519.31;;;27.13;27.31
7480;BME280;3781;42.272;22.658;2024-03-29T11:37:32;94513.28;;;27.06;27.36
7480;BME280;3781;42.272;22.658;2024-03-29T11:39:59;94507.63;;;26.74;26.79
7480;BME280;3781;42.272;22.658;2024-03-29T11:42:37;94506.50;;;27.54;27.76
7480;BME280;3781;42.272;22.658;2024-03-29T11:45:06;94506.56;;;28.04;26.74
7480;BME280;3781;42.272;22.658;2024-03-29T11:47:36;94516.00;;;28.28;26.12
7480;BME280;3781;42.272;22.658;2024-03-29T11:50:03;94500.63;;;28.74;27.07
7480;BME280;3781;42.272;22.658;2024-03-29T11:52:30;94493.22;;;29.24;25.93
7480;BME280;3781;42.272;22.658;2024-03-29T11:54:57;94507.00;;;29.91;24.38
7480;BME280;3781;42.272;22.658;2024-03-29T11:57:24;94503.59;;;30.32;24.24
7480;BME280;3781;42.272;22.658;2024-03-29T11:59:51;94504.00;;;30.56;24.62
7480;BME280;3781;42.272;22.658;2024-03-29T12:02:19;94503.59;;;30.84;23.95
7480;BME280;3781;42.272;22.658;2024-03-29T12:04:45;94489.00;;;31.17;23.11
7480;BME280;3781;42.272;22.658;2024-03-29T12:07:12;94501.78;;;31.72;23.30
7480;BME280;3781;42.272;22.658;2024-03-29T12:09:40;94497.47;;;31.66;23.06
7480;BME280;3781;42.272;22.658;2024-03-29T12:12:07;94500.78;;;31.06;23.26
7480;BME280;3781;42.272;22.658;2024-03-29T12:14:35;94502.34;;;30.92;23.10
7480;BME280;3781;42.272;22.658;2024-03-29T12:17:09;94495.66;;;30.94;23.43
7480;BME280;3781;42.272;22.658;2024-03-29T12:19:37;94497.63;;;31.24;22.94
7480;BME280;3781;42.272;22.658;2024-03-29T12:22:07;94493.25;;;30.93;23.89
7480;BME280;3781;42.272;22.658;2024-03-29T12:24:34;94462.47;;;31.20;22.19
7480;BME280;3781;42.272;22.658;2024-03-29T12:27:01;94449.34;;;31.29;21.82
7480;BME280;3781;42.272;22.658;2024-03-29T12:29:28;94480.56;;;31.55;22.49
7480;BME280;3781;42.272;22.658;2024-03-29T12:31:59;94477.66;;;30.90;23.13
7480;BME280;3781;42.272;22.658;2024-03-29T12:34:26;94475.63;;;31.32;23.98
7480;BME280;3781;42.272;22.658;2024-03-29T12:36:54;94477.34;;;32.34;23.50
7480;BME280;3781;42.272;22.658;2024-03-29T12:39:21;94477.56;;;32.67;21.89
7480;BME280;3781;42.272;22.658;2024-03-29T12:41:50;94474.84;;;32.72;21.31
7480;BME280;3781;42.272;22.658;2024-03-29T12:44:19;94472.63;;;32.95;22.10
7480;BME280;3781;42.272;22.658;2024-03-29T12:46:45;94486.22;;;33.23;21.58
7480;BME280;3781;42.272;22.658;2024-03-29T12:49:13;94403.50;;;32.01;22.81
7480;BME280;3781;42.272;22.658;2024-03-29T12:51:40;94467.94;;;32.21;22.47
7480;BME280;3781;42.272;22.658;2024-03-29T12:54:11;94467.13;;;32.36;23.33
7480;BME280;3781;42.272;22.658;2024-03-29T12:56:39;94454.34;;;33.51;21.50
7480;BME280;3781;42.272;22.658;2024-03-29T12:59:07;94457.25;;;34.27;21.43
7480;BME280;3781;42.272;22.658;2024-03-29T13:01:34;94462.97;;;33.86;20.97
7480;BME280;3781;42.272;22.658;2024-03-29T13:04:01;94464.91;;;32.73;22.23
7480;BME280;3781;42.272;22.658;2024-03-29T13:06:27;94459.59;;;31.57;23.25
7480;BME280;3781;42.272;22.658;2024-03-29T13:08:54;94424.81;;;30.33;23.65
7480;BME280;3781;42.272;22.658;2024-03-29T13:11:23;94456.28;;;30.53;24.57
7480;BME280;3781;42.272;22.658;2024-03-29T13:13:50;94450.44;;;30.66;23.71
7480;BME280;3781;42.272;22.658;2024-03-29T13:16:17;94436.13;;;31.07;24.02